Time;durP1;ratioP1;P1;durP2;ratioP2;P2;SDS_P1;SDS_P2;PMS_P1;PMS_P2;Temp;Humidity;BMP_temperature;BMP_pressure;BME280_temperature;BME280_humidity;BME280_pressure;Samples;Min_cycle;Max_cycle;Signal;HPM_P1;HPM_P2
2023/02/25 00:01:37;;;;;;;7.53;3.28;;;;;;;16.82;49.93;100946.22;6228026;22;20057;-88
2023/02/25 00:04:02;;;;;;;7.20;2.72;;;;;;;16.82;49.93;100938.44;6253832;22;20075;-89
2023/02/25 00:06:30;;;;;;;7.55;3.08;;;;;;;16.81;50.01;100934.13;6227683;22;20022;-89
2023/02/25 00:09:01;;;;;;;7.75;3.25;;;;;;;16.82;49.97;100942.78;6228976;22;20016;-88
2023/02/25 00:11:30;;;;;;;6.60;3.25;;;;;;;16.81;50.09;100930.63;6253258;22;20003;-87
2023/02/25 00:13:55;;;;;;;8.93;3.45;;;;;;;16.80;49.78;100921.97;6227611;22;20004;-88
2023/02/25 00:16:22;;;;;;;6.30;2.80;;;;;;;16.80;50.04;100924.56;6202038;22;20102;-87
2023/02/25 00:18:55;;;;;;;7.65;2.90;;;;;;;16.80;49.94;100929.78;6280158;22;19999;-88
2023/02/25 00:21:23;;;;;;;8.00;3.10;;;;;;;16.78;49.71;100935.81;6250781;22;20019;-89
2023/02/25 00:23:52;;;;;;;7.88;3.10;;;;;;;16.79;49.82;100941.03;6228166;22;20448;-88
2023/02/25 00:26:18;;;;;;;7.60;2.90;;;;;;;16.78;49.99;100941.88;6227779;22;20340;-87
2023/02/25 00:28:47;;;;;;;7.38;3.00;;;;;;;16.79;49.92;100950.56;6253573;22;20004;-88
2023/02/25 00:31:15;;;;;;;7.57;3.03;;;;;;;16.78;49.65;100941.88;6253631;22;20003;-88
2023/02/25 00:33:44;;;;;;;7.70;3.33;;;;;;;16.78;49.64;100943.63;6253271;22;20034;-88
2023/02/25 00:36:13;;;;;;;6.50;3.03;;;;;;;16.76;49.60;100942.75;6253664;22;20513;-88
2023/02/25 00:38:41;;;;;;;6.95;2.83;;;;;;;16.76;49.77;100938.41;6252876;22;20083;-87
2023/02/25 00:41:10;;;;;;;7.32;2.45;;;;;;;16.77;49.33;100947.09;6252841;22;20099;-87
2023/02/25 00:43:37;;;;;;;7.22;2.65;;;;;;;16.76;49.75;100942.75;6280610;22;20057;-88
2023/02/25 00:46:03;;;;;;;5.97;2.50;;;;;;;16.78;49.97;100938.41;6227868;22;20476;-87
2023/02/25 00:48:28;;;;;;;6.30;2.83;;;;;;;16.76;49.74;100946.22;6202504;22;20023;-88
2023/02/25 00:50:57;;;;;;;7.93;2.53;;;;;;;16.75;49.54;100936.72;6253321;22;20007;-88
2023/02/25 00:53:46;;;;;;;5.82;2.83;;;;;;;16.76;49.68;100945.34;6226888;22;20015;-78
2023/02/25 01:16:36;;;;;;;5.97;2.58;;;;;;;16.73;49.57;100968.78;6252961;22;20019;-87
2023/02/25 01:46:17;;;;;;;5.32;2.22;;;;;;;16.71;49.41;100957.53;6234028;23;20008;-86
2023/02/25 01:49:08;;;;;;;6.55;2.50;;;;;;;16.70;49.49;100954.06;6158839;23;20014;-85
2023/02/25 01:51:46;;;;;;;5.60;2.50;;;;;;;16.69;49.59;100959.25;6208003;23;20052;-86
2023/02/25 01:54:38;;;;;;;6.38;2.30;;;;;;;16.70;49.56;100956.66;6209320;23;20001;-86
2023/02/25 01:57:42;;;;;;;6.07;2.50;;;;;;;16.69;49.38;100954.91;6209541;23;19989;-86
2023/02/25 02:00:43;;;;;;;6.72;2.40;;;;;;;16.70;49.38;100959.25;6209952;23;20001;-86
2023/02/25 02:03:20;;;;;;;6.45;2.72;;;;;;;16.68;49.38;100955.81;6208008;23;20015;-87
2023/02/25 02:06:08;;;;;;;6.97;2.50;;;;;;;16.70;49.31;100953.19;6208967;23;19997;-86
2023/02/25 02:43:39;;;;;;;5.57;1.98;;;;;;;16.75;49.14;100969.63;6180751;22;21172;31
2023/02/25 02:46:44;;;;;;;3.72;1.58;;;;;;;16.75;49.36;100961.84;6171192;23;20022;-87
2023/02/25 02:49:37;;;;;;;4.45;2.10;;;;;;;16.76;49.06;100963.56;6177033;23;20020;-87
2023/02/25 02:52:27;;;;;;;3.53;1.70;;;;;;;16.75;49.13;100960.09;6149340;23;20037;-87
2023/02/25 02:55:05;;;;;;;5.30;2.10;;;;;;;16.76;49.05;100954.00;6151901;23;20016;-86
2023/02/25 03:01:41;;;;;;;4.68;1.88;;;;;;;16.77;49.26;100958.34;6178828;23;20040;-87
2023/02/25 03:04:35;;;;;;;3.08;1.38;;;;;;;16.78;49.27;100961.81;6099609;23;20070;-87
2023/02/25 03:07:39;;;;;;;4.05;1.52;;;;;;;16.79;49.31;100945.38;6099599;23;20014;-87
2023/02/25 03:34:48;;;;;;;3.15;1.42;;;;;;;16.81;49.09;100961.81;6207846;23;20053;-87
2023/02/25 03:37:47;;;;;;;4.05;1.30;;;;;;;16.81;48.96;100962.72;6156909;23;20013;-87
2023/02/25 03:40:27;;;;;;;3.85;1.45;;;;;;;16.80;49.17;100966.16;6207450;23;20354;-87
2023/02/25 03:46:28;;;;;;;3.67;1.45;;;;;;;16.81;49.25;100975.69;6208103;23;20020;-87
2023/02/25 03:49:06;;;;;;;3.53;1.58;;;;;;;16.81;49.19;100980.91;6203788;23;20001;-87
2023/02/25 03:51:57;;;;;;;3.58;1.50;;;;;;;16.82;49.25;100993.00;6121902;23;20072;-87
2023/02/25 03:57:50;;;;;;;3.47;1.40;;;;;;;16.83;49.20;101015.53;6148600;23;20053;-87
2023/02/25 04:00:37;;;;;;;3.10;1.33;;;;;;;16.83;49.08;101006.84;6124521;23;20010;-86
2023/02/25 04:03:06;;;;;;;3.92;1.45;;;;;;;16.83;48.92;101004.25;6124762;23;20002;-86
2023/02/25 04:05:35;;;;;;;3.17;1.50;;;;;;;16.83;49.35;101007.75;6106106;23;20006;-86
2023/02/25 04:08:14;;;;;;;4.18;1.35;;;;;;;16.84;49.04;101014.66;6099550;23;20016;-87
2023/02/25 04:10:47;;;;;;;3.08;1.42;;;;;;;16.82;49.16;101011.19;6121842;23;20005;-87
2023/02/25 04:16:13;;;;;;;4.13;1.25;;;;;;;16.80;49.02;101018.13;6149016;23;20065;-87
2023/02/25 04:18:51;;;;;;;2.90;1.30;;;;;;;16.80;49.17;101012.09;6124381;23;20017;-87
2023/02/25 04:21:45;;;;;;;4.75;1.38;;;;;;;16.78;49.25;101019.00;6149114;23;20002;-87
2023/02/25 04:24:53;;;;;;;3.97;1.70;;;;;;;16.77;49.17;101014.66;6149416;23;20002;-86
2023/02/25 04:27:46;;;;;;;2.70;1.30;;;;;;;16.75;49.32;101016.41;6059341;23;20035;-87
2023/02/25 04:30:15;;;;;;;2.80;1.27;;;;;;;16.76;49.34;101018.97;6032298;23;20051;-86
2023/02/25 04:33:11;;;;;;;2.70;1.30;;;;;;;16.75;49.28;101022.47;6005415;23;20031;-87
2023/02/25 04:35:46;;;;;;;3.25;1.40;;;;;;;16.75;49.35;101021.59;6006881;24;19992;-82
2023/02/25 04:38:38;;;;;;;2.72;1.15;;;;;;;16.73;49.27;101032.00;5981037;24;20015;-86
2023/02/25 04:41:12;;;;;;;3.20;1.40;;;;;;;16.75;49.42;101026.81;5991469;23;20019;-87
2023/02/25 04:47:59;;;;;;;3.10;1.48;;;;;;;16.75;49.22;101025.06;6061342;23;20022;-87
2023/02/25 04:50:58;;;;;;;4.05;1.20;;;;;;;16.76;49.20;101031.13;6061314;23;20070;-87
2023/02/25 04:53:57;;;;;;;2.97;1.10;;;;;;;16.74;49.06;101018.13;6060502;23;20130;-86
2023/02/25 04:59:47;;;;;;;2.80;1.33;;;;;;;16.77;49.19;101032.88;6061123;23;20025;-86
2023/02/25 05:04:50;;;;;;;3.05;1.38;;;;;;;16.76;49.05;101029.38;6230593;22;20030;-87
2023/02/25 05:07:44;;;;;;;5.35;1.50;;;;;;;16.78;48.89;101027.63;6244079;23;20459;-86
2023/02/25 05:10:24;;;;;;;3.42;1.27;;;;;;;16.79;48.99;101036.31;6269713;23;20000;-87
2023/02/25 05:13:17;;;;;;;2.83;1.38;;;;;;;16.80;49.16;101032.88;6245006;23;20030;-87
2023/02/25 05:16:05;;;;;;;2.67;1.40;;;;;;;16.78;49.13;101035.44;6266508;23;20031;-87
2023/02/25 05:18:46;;;;;;;2.25;1.17;;;;;;;16.78;49.22;101037.19;6245936;23;20004;-86
2023/02/25 05:21:36;;;;;;;3.28;1.30;;;;;;;16.79;49.29;101037.19;6244082;23;20004;-85
2023/02/25 05:24:15;;;;;;;3.40;1.27;;;;;;;16.79;49.10;101039.78;6153301;23;20128;-87
2023/02/25 05:26:45;;;;;;;3.15;1.20;;;;;;;16.78;49.05;101029.38;6128992;23;20077;-87
2023/02/25 05:29:33;;;;;;;3.80;1.30;;;;;;;16.79;49.15;101033.72;6130581;23;20005;-87
2023/02/25 05:32:00;;;;;;;2.67;1.20;;;;;;;16.79;48.93;101034.59;6153926;23;20017;-86
2023/02/25 05:34:57;;;;;;;3.15;1.20;;;;;;;16.81;48.87;101037.19;6129338;23;20096;-87
2023/02/25 05:44:44;;;;;;;2.80;1.10;;;;;;;16.81;49.08;101037.19;6179469;23;20108;-87
2023/02/25 05:54:48;;;;;;;3.38;1.45;;;;;;;16.82;49.15;101038.94;6238328;22;20023;-87
2023/02/25 05:57:41;;;;;;;3.38;1.40;;;;;;;16.81;49.02;101035.47;6147739;23;20021;-87
2023/02/25 06:34:31;;;;;;;3.33;1.33;;;;;;;16.93;48.91;101077.91;6270076;22;20047;-85
2023/02/25 06:36:58;;;;;;;2.85;1.10;;;;;;;16.92;48.91;101082.25;6247727;22;20016;-86
2023/02/25 06:39:23;;;;;;;3.38;1.10;;;;;;;16.93;49.00;101076.16;6248145;23;19993;-85
2023/02/25 06:41:50;;;;;;;2.22;1.10;;;;;;;16.95;48.53;101084.81;6250567;22;20026;-85
2023/02/25 06:44:15;;;;;;;3.08;1.35;;;;;;;16.94;48.78;101080.50;6277119;22;20004;-85
2023/02/25 06:47:05;;;;;;;3.25;1.00;;;;;;;16.95;48.67;101087.41;6278182;22;20014;-85
2023/02/25 07:07:21;;;;;;;2.50;1.08;;;;;;;17.13;48.42;101101.22;6242378;22;20023;-86
2023/02/25 07:10:30;;;;;;;2.72;1.20;;;;;;;17.13;48.43;101099.47;6181527;23;20021;-85
2023/02/25 07:23:07;;;;;;;2.63;1.10;;;;;;;17.23;48.20;101114.19;6223793;22;20015;-86
2023/02/25 07:30:00;;;;;;;3.00;1.20;;;;;;;17.30;47.63;101109.81;6153218;23;20070;-87
2023/02/25 07:44:15;;;;;;;3.38;1.30;;;;;;;17.25;47.46;101138.47;6239563;22;20008;-87
2023/02/25 07:46:51;;;;;;;5.28;1.60;;;;;;;17.27;47.79;101135.88;6269403;23;20026;-82
2023/02/25 07:49:23;;;;;;;4.50;1.80;;;;;;;17.34;47.31;101134.09;6240396;23;20008;-85
2023/02/25 07:52:19;;;;;;;6.53;1.60;;;;;;;17.37;47.23;101145.34;6269612;23;20004;-84
2023/02/25 07:55:07;;;;;;;9.55;1.60;;;;;;;17.38;47.26;101139.28;6272310;23;20007;-84
2023/02/25 08:04:45;;;;;;;;;;;;;;;;;;;;;
2023/02/25 08:07:20;;;;;;;11.85;1.85;;;;;;;17.60;46.86;101160.88;6287343;22;20012;-84
2023/02/25 08:16:11;;;;;;;7.15;1.73;;;;;;;17.48;47.39;101167.00;6233494;23;20104;-81
2023/02/25 08:18:37;;;;;;;4.63;1.48;;;;;;;17.48;47.50;101166.13;6200858;23;20005;-80
2023/02/25 08:24:42;;;;;;;8.23;2.35;;;;;;;17.60;47.14;101170.44;6240654;23;20015;-83
2023/02/25 08:27:47;;;;;;;11.38;3.30;;;;;;;17.61;47.76;101178.19;6216560;23;20006;-84
2023/02/25 08:30:55;;;;;;;8.63;2.70;;;;;;;17.52;47.93;101193.00;6243293;23;20001;-84
2023/02/25 08:34:00;;;;;;;11.35;3.50;;;;;;;17.52;47.77;101200.81;6243059;23;20031;-84
2023/02/25 08:40:45;;;;;;;8.90;2.75;;;;;;;17.81;46.96;101216.28;6178986;23;20052;-84
2023/02/25 08:57:16;;;;;;;5.68;2.30;;;;;;;17.55;47.44;101230.28;6094033;23;20005;-82
2023/02/25 10:22:35;;;;;;;3.30;1.30;;;;;;;17.66;47.57;101327.44;6213135;23;20013;-83
2023/02/25 10:30:51;;;;;;;3.63;1.23;;;;;;;17.72;47.70;101343.88;6236338;22;20020;-85
2023/02/25 10:33:31;;;;;;;7.47;1.40;;;;;;;17.73;47.46;101330.03;6301474;22;19984;-85
2023/02/25 10:36:16;;;;;;;2.67;1.23;;;;;;;17.78;47.40;101336.06;6274434;22;20011;-85
2023/02/25 10:38:59;;;;;;;10.48;1.23;;;;;;;17.94;47.25;101334.31;6301278;22;19988;-84
2023/02/25 12:59:00;;;;;;;2.88;1.10;;;;;;;17.18;51.29;101448.84;6302495;22;20049;-88
2023/02/25 13:05:18;;;;;;;3.53;1.08;;;;;;;17.14;52.13;101454.03;6303873;22;20063;-88
2023/02/25 13:31:33;;;;;;;4.60;1.00;;;;;;;17.03;54.12;101480.03;6247014;22;20038;-88
2023/02/25 13:34:47;;;;;;;2.30;1.00;;;;;;;17.02;53.91;101483.47;6212959;23;20013;-88
2023/02/25 16:12:07;;;;;;;2.47;1.02;;;;;;;17.18;56.41;101648.22;6208400;23;20027;-87
2023/02/25 16:15:31;;;;;;;;;;;;;;;;;;;;;
2023/02/25 16:19:02;;;;;;;3.42;1.27;;;;;;;17.18;53.92;101656.03;6149507;23;20010;-86
2023/02/25 16:22:09;;;;;;;2.40;1.15;;;;;;;17.20;55.80;101655.19;6093972;23;20046;-87
2023/02/25 16:25:19;;;;;;;4.75;0.80;;;;;;;17.19;53.79;101665.59;6117920;23;20009;-85
2023/02/25 16:28:25;;;;;;;2.70;1.10;;;;;;;17.21;53.85;101669.94;6061270;23;20011;-86
2023/02/25 16:31:48;;;;;;;;;;;;;;;;;;;;;
2023/02/25 16:35:10;;;;;;;3.22;1.10;;;;;;;17.23;55.29;101681.22;6057427;23;20014;-86
2023/02/25 16:38:28;;;;;;;4.57;1.05;;;;;;;17.22;55.08;101689.00;5970325;23;20010;-86
2023/02/25 16:41:33;;;;;;;;;;;;;;;;;;;;;
2023/02/25 16:44:41;;;;;;;2.13;0.90;;;;;;;17.24;54.78;101689.88;6017971;23;20019;-86
2023/02/25 16:47:57;;;;;;;;;;;;;;;;;;;;;
2023/02/25 16:51:05;;;;;;;1.88;0.82;;;;;;;17.24;55.30;101703.75;6033428;23;19999;-84
2023/02/25 16:53:42;;;;;;;1.83;1.00;;;;;;;17.22;53.76;101700.28;6084960;23;20004;-84
2023/02/25 16:56:27;;;;;;;1.80;0.80;;;;;;;17.23;55.20;101704.63;5998560;24;20020;-85
2023/02/25 16:59:20;;;;;;;4.15;1.02;;;;;;;17.24;55.13;101713.28;5988540;23;19998;-84
2023/02/25 17:02:17;;;;;;;2.35;1.00;;;;;;;17.24;54.10;101718.50;6014392;23;20007;-84
2023/02/25 17:05:22;;;;;;;2.83;0.95;;;;;;;17.22;54.09;101718.50;6061870;23;20018;-84
2023/02/25 17:08:18;;;;;;;2.35;0.95;;;;;;;17.24;53.48;101715.88;6040566;23;20023;-84
2023/02/25 17:11:12;;;;;;;3.35;1.13;;;;;;;17.25;54.85;101721.09;5954671;24;20009;-84
2023/02/25 17:14:03;;;;;;;2.10;0.85;;;;;;;17.24;54.67;101719.34;5978310;24;20139;-84
2023/02/25 17:20:07;;;;;;;1.70;0.80;;;;;;;17.27;54.58;101728.94;6033223;23;20026;-83
2023/02/25 17:23:02;;;;;;;2.63;0.80;;;;;;;17.26;53.83;101730.63;6003582;23;20011;-84
2023/02/25 17:51:04;;;;;;;2.50;0.75;;;;;;;17.24;55.16;101752.31;6281962;22;20557;-82
2023/02/25 17:53:45;;;;;;;1.40;0.82;;;;;;;17.13;56.94;101762.63;6282529;22;20007;-80
2023/02/25 19:30:24;;;;;;;21.45;7.35;;;;;;;16.72;58.39;101871.44;6334027;22;20029;-85
2023/02/25 19:36:26;;;;;;;22.30;7.63;;;;;;;16.93;56.24;101871.69;6270813;22;20023;-82
2023/02/25 19:38:56;;;;;;;18.02;6.93;;;;;;;16.97;59.05;101872.59;6178628;23;20017;-82
2023/02/25 20:12:14;;;;;;;18.13;5.57;;;;;;;16.94;56.77;101882.97;6183637;23;20012;-85
2023/02/25 20:31:25;;;;;;;10.80;5.03;;;;;;;16.98;55.31;101902.94;6212786;23;20020;-84
2023/02/25 20:41:40;;;;;;;13.13;4.97;;;;;;;16.95;55.18;101902.91;6108921;23;20021;-84
2023/02/25 20:47:37;;;;;;;11.98;4.80;;;;;;;16.94;55.23;101912.47;6093695;23;20336;-84
2023/02/25 20:50:16;;;;;;;13.60;4.97;;;;;;;16.95;55.67;101914.19;6069073;23;20015;-84
2023/02/25 20:52:46;;;;;;;11.65;4.72;;;;;;;16.99;55.85;101920.31;6063844;23;20002;-83
2023/02/25 20:55:11;;;;;;;10.98;5.10;;;;;;;16.97;55.85;101925.47;6078530;23;20386;-81
2023/02/25 21:01:19;;;;;;;11.30;4.65;;;;;;;16.97;55.62;101937.63;6075936;23;20017;-86
2023/02/25 21:36:59;;;;;;;8.35;3.92;;;;;;;16.93;56.60;101951.44;6328782;22;20094;-86
2023/02/25 21:40:31;;;;;;;9.77;4.70;;;;;;;16.92;56.45;101960.97;6332143;22;20022;-86
2023/02/25 21:42:58;;;;;;;8.13;4.20;;;;;;;16.92;55.97;101960.06;6309411;22;20003;-82
2023/02/25 21:45:27;;;;;;;8.82;4.20;;;;;;;16.93;56.48;101969.63;6298321;22;20019;-85
2023/02/25 21:48:12;;;;;;;9.57;4.25;;;;;;;16.91;56.49;101969.59;6331306;22;20010;-85
2023/02/25 21:50:45;;;;;;;10.38;4.15;;;;;;;16.92;56.02;101963.56;6325817;22;20009;-86
2023/02/25 21:53:33;;;;;;;8.05;4.03;;;;;;;16.92;56.50;101971.38;6271096;22;20014;-87
2023/02/25 21:56:30;;;;;;;8.98;3.78;;;;;;;16.92;56.45;101975.66;6306934;22;20435;-87
2023/02/25 22:02:28;;;;;;;8.45;3.65;;;;;;;16.91;55.81;101986.94;6332240;22;20024;-88
2023/02/25 22:05:23;;;;;;;6.43;3.35;;;;;;;16.90;56.02;101983.47;6323073;22;20002;-87
2023/02/25 22:07:53;;;;;;;7.55;3.75;;;;;;;16.91;55.76;101985.22;6305155;22;20037;-88
2023/02/25 22:11:20;;;;;;;6.75;3.70;;;;;;;16.92;56.22;101986.97;6246458;23;20022;-87
2023/02/25 22:14:28;;;;;;;7.22;3.30;;;;;;;16.91;56.10;101981.75;6178161;23;20069;-87
2023/02/25 22:17:13;;;;;;;5.97;3.50;;;;;;;16.90;56.21;101983.47;6159340;23;20016;-87
2023/02/25 22:23:47;;;;;;;5.85;3.10;;;;;;;16.91;55.68;101999.94;6208931;23;20033;-87
2023/02/25 22:26:53;;;;;;;8.43;3.45;;;;;;;16.91;55.71;102003.41;6093769;23;20062;-85
2023/02/25 22:29:42;;;;;;;8.07;3.67;;;;;;;16.90;55.92;102001.69;6090393;23;20031;-85
2023/02/25 22:32:31;;;;;;;7.05;2.65;;;;;;;16.90;55.53;102006.88;6089762;23;20017;-85
2023/02/25 22:35:21;;;;;;;5.55;3.10;;;;;;;16.96;54.78;102008.66;6044095;23;20091;-86
2023/02/25 22:38:07;;;;;;;6.15;2.85;;;;;;;16.97;54.13;102010.41;6115592;23;20073;-85
2023/02/25 22:41:13;;;;;;;9.50;3.45;;;;;;;16.99;53.91;102014.78;6087095;23;20022;-84
2023/02/25 22:43:39;;;;;;;6.90;3.42;;;;;;;17.01;53.58;102013.06;6127926;23;20041;-78
2023/02/25 22:46:09;;;;;;;7.20;2.85;;;;;;;16.96;54.55;102006.06;6130633;23;20010;-79
2023/02/25 22:48:37;;;;;;;6.25;3.03;;;;;;;16.95;54.18;102007.78;6131142;23;20012;-79
2023/02/25 22:51:03;;;;;;;8.27;3.20;;;;;;;16.94;54.00;101997.38;6130608;23;20009;-78
2023/02/25 22:53:29;;;;;;;9.27;3.13;;;;;;;16.92;54.13;102002.56;6117497;23;20010;-79
2023/02/25 22:55:59;;;;;;;8.05;3.22;;;;;;;16.93;53.88;102012.09;6143958;23;20085;-79
2023/02/25 22:58:24;;;;;;;7.18;3.00;;;;;;;16.91;54.19;102006.00;6161875;23;20025;-79
2023/02/25 23:00:50;;;;;;;7.88;2.90;;;;;;;16.92;54.21;102002.56;6133341;23;20021;-79
2023/02/25 23:03:15;;;;;;;7.25;3.25;;;;;;;16.91;54.14;102008.59;6135428;23;20020;-78
2023/02/25 23:05:41;;;;;;;5.45;2.92;;;;;;;16.91;54.27;102006.00;6110714;23;20009;-78
2023/02/25 23:08:06;;;;;;;6.38;2.78;;;;;;;16.90;54.25;102012.06;6151441;23;20005;-78
2023/02/25 23:10:34;;;;;;;8.13;3.00;;;;;;;16.91;54.15;102016.41;6171134;23;20012;-78
2023/02/25 23:13:06;;;;;;;4.90;2.65;;;;;;;16.89;54.03;102012.06;6222385;23;20340;-79
2023/02/25 23:15:49;;;;;;;;;;;;;;;;;;;;;
2023/02/25 23:18:46;;;;;;;5.95;2.80;;;;;;;16.88;53.72;102013.78;6247114;22;20094;-79
2023/02/25 23:24:18;;;;;;;6.72;2.33;;;;;;;16.89;53.47;102009.44;6128049;23;20065;-78
2023/02/25 23:26:46;;;;;;;5.45;2.53;;;;;;;16.87;53.56;102019.81;6204998;22;20075;-78
2023/02/25 23:29:12;;;;;;;5.13;2.28;;;;;;;16.88;53.96;102024.19;6229019;22;20020;-79
2023/02/25 23:31:42;;;;;;;4.55;2.20;;;;;;;16.87;53.96;102022.41;6228404;22;20348;-78
2023/02/25 23:34:13;;;;;;;5.78;2.50;;;;;;;16.88;53.68;102024.19;6253349;22;20007;-78
2023/02/25 23:36:42;;;;;;;6.65;2.60;;;;;;;16.87;53.75;102019.81;6252678;22;20012;-78
2023/02/25 23:39:08;;;;;;;6.00;2.78;;;;;;;16.86;53.65;102021.56;6253248;22;20127;-79
2023/02/25 23:41:35;;;;;;;4.18;2.45;;;;;;;16.87;53.53;102030.22;6279981;22;20011;-79
2023/02/25 23:44:00;;;;;;;5.45;2.50;;;;;;;16.86;53.32;102031.94;6253455;22;20015;-79
2023/02/25 23:46:27;;;;;;;5.25;2.10;;;;;;;16.86;53.63;102039.75;6253599;22;20317;-79
2023/02/25 23:48:57;;;;;;;5.10;2.47;;;;;;;16.87;53.43;102040.63;6230249;22;20007;-79
2023/02/25 23:51:24;;;;;;;4.50;2.10;;;;;;;16.86;53.08;102034.56;6261008;22;20029;-78
2023/02/25 23:53:53;;;;;;;5.57;2.63;;;;;;;16.86;53.26;102041.50;6230577;22;20438;-79
2023/02/25 23:56:19;;;;;;;3.45;1.92;;;;;;;16.86;53.24;102057.09;6230531;22;20011;-79
2023/02/25 23:58:48;;;;;;;6.32;2.30;;;;;;;16.87;53.33;102053.63;6229718;22;20047;-79
